sensor_id;sensor_type;location;lat;lon;timestamp;P1;durP1;ratioP1;P2;durP2;ratioP2
2756;SDS011;1386;50.862;6.494;2023-06-14T00:00:53;7.97;;;6.97;;
2756;SDS011;1386;50.862;6.494;2023-06-14T00:03:21;11.37;;;6.30;;
2756;SDS011;1386;50.862;6.494;2023-06-14T00:05:49;8.13;;;5.90;;
2756;SDS011;1386;50.862;6.494;2023-06-14T06:10:14;8.67;;;5.83;;
2756;SDS011;1386;50.862;6.494;2023-06-14T06:12:44;6.47;;;5.63;;
2756;SDS011;1386;50.862;6.494;2023-06-14T06:15:12;7.93;;;6.33;;
2756;SDS011;1386;50.862;6.494;2023-06-14T06:17:39;8.23;;;6.10;;
2756;SDS011;1386;50.862;6.494;2023-06-14T06:20:07;8.50;;;6.40;;
2756;SDS011;1386;50.862;6.494;2023-06-14T06:22:37;6.10;;;5.50;;
2756;SDS011;1386;50.862;6.494;2023-06-14T06:25:09;6.33;;;5.73;;
2756;SDS011;1386;50.862;6.494;2023-06-14T06:27:37;7.97;;;5.80;;
2756;SDS011;1386;50.862;6.494;2023-06-14T06:30:06;7.40;;;5.47;;
2756;SDS011;1386;50.862;6.494;2023-06-14T06:32:33;7.77;;;5.30;;
2756;SDS011;1386;50.862;6.494;2023-06-14T06:35:00;6.03;;;5.13;;
2756;SDS011;1386;50.862;6.494;2023-06-14T06:37:28;5.10;;;4.60;;
2756;SDS011;1386;50.862;6.494;2023-06-14T06:39:55;10.43;;;5.87;;
2756;SDS011;1386;50.862;6.494;2023-06-14T06:42:23;7.93;;;4.90;;
2756;SDS011;1386;50.862;6.494;2023-06-14T06:44:50;9.60;;;4.67;;
2756;SDS011;1386;50.862;6.494;2023-06-14T06:47:17;9.43;;;4.93;;
2756;SDS011;1386;50.862;6.494;2023-06-14T06:49:44;8.00;;;4.80;;
2756;SDS011;1386;50.862;6.494;2023-06-14T06:52:10;6.17;;;4.87;;
2756;SDS011;1386;50.862;6.494;2023-06-14T06:54:37;8.77;;;5.27;;
2756;SDS011;1386;50.862;6.494;2023-06-14T06:57:04;7.13;;;4.40;;
2756;SDS011;1386;50.862;6.494;2023-06-14T06:59:33;10.67;;;4.43;;
2756;SDS011;1386;50.862;6.494;2023-06-14T07:02:00;6.13;;;4.13;;
2756;SDS011;1386;50.862;6.494;2023-06-14T07:04:27;5.50;;;3.80;;
2756;SDS011;1386;50.862;6.494;2023-06-14T07:06:54;8.97;;;4.10;;
2756;SDS011;1386;50.862;6.494;2023-06-14T07:09:21;6.43;;;4.10;;
2756;SDS011;1386;50.862;6.494;2023-06-14T07:11:48;7.90;;;4.00;;
2756;SDS011;1386;50.862;6.494;2023-06-14T07:14:14;4.90;;;4.40;;
2756;SDS011;1386;50.862;6.494;2023-06-14T07:16:43;4.67;;;4.00;;
2756;SDS011;1386;50.862;6.494;2023-06-14T07:19:11;6.20;;;3.60;;
2756;SDS011;1386;50.862;6.494;2023-06-14T07:21:38;6.63;;;3.67;;
2756;SDS011;1386;50.862;6.494;2023-06-14T07:24:05;4.20;;;3.47;;
2756;SDS011;1386;50.862;6.494;2023-06-14T07:26:32;4.90;;;3.37;;
2756;SDS011;1386;50.862;6.494;2023-06-14T07:29:00;4.33;;;3.93;;
2756;SDS011;1386;50.862;6.494;2023-06-14T07:31:27;8.60;;;3.70;;
2756;SDS011;1386;50.862;6.494;2023-06-14T07:33:56;4.90;;;4.00;;
2756;SDS011;1386;50.862;6.494;2023-06-14T07:36:23;4.93;;;4.30;;
2756;SDS011;1386;50.862;6.494;2023-06-14T07:38:50;5.07;;;3.30;;
2756;SDS011;1386;50.862;6.494;2023-06-14T07:41:17;4.47;;;4.03;;
2756;SDS011;1386;50.862;6.494;2023-06-14T07:43:44;3.70;;;3.10;;
2756;SDS011;1386;50.862;6.494;2023-06-14T07:46:11;5.00;;;3.77;;
2756;SDS011;1386;50.862;6.494;2023-06-14T07:48:38;5.00;;;3.77;;
2756;SDS011;1386;50.862;6.494;2023-06-14T07:51:07;8.70;;;3.67;;
2756;SDS011;1386;50.862;6.494;2023-06-14T07:53:34;5.77;;;3.23;;
2756;SDS011;1386;50.862;6.494;2023-06-14T07:56:01;8.53;;;3.63;;
2756;SDS011;1386;50.862;6.494;2023-06-14T07:58:28;4.23;;;3.67;;
2756;SDS011;1386;50.862;6.494;2023-06-14T08:00:55;4.87;;;3.97;;
2756;SDS011;1386;50.862;6.494;2023-06-14T08:03:23;5.13;;;3.73;;
2756;SDS011;1386;50.862;6.494;2023-06-14T08:05:50;13.07;;;3.70;;
2756;SDS011;1386;50.862;6.494;2023-06-14T08:08:19;6.63;;;3.60;;
2756;SDS011;1386;50.862;6.494;2023-06-14T08:10:46;4.10;;;3.70;;
2756;SDS011;1386;50.862;6.494;2023-06-14T08:13:14;4.43;;;3.53;;
2756;SDS011;1386;50.862;6.494;2023-06-14T08:15:41;8.13;;;3.60;;
2756;SDS011;1386;50.862;6.494;2023-06-14T08:18:08;5.90;;;2.90;;
2756;SDS011;1386;50.862;6.494;2023-06-14T08:20:35;5.20;;;3.30;;
2756;SDS011;1386;50.862;6.494;2023-06-14T08:23:02;5.13;;;3.10;;
2756;SDS011;1386;50.862;6.494;2023-06-14T08:25:31;5.80;;;3.40;;
2756;SDS011;1386;50.862;6.494;2023-06-14T08:27:58;3.83;;;3.40;;
2756;SDS011;1386;50.862;6.494;2023-06-14T08:30:32;3.93;;;2.83;;
2756;SDS011;1386;50.862;6.494;2023-06-14T08:33:00;6.57;;;3.37;;
2756;SDS011;1386;50.862;6.494;2023-06-14T08:35:27;4.60;;;3.00;;
2756;SDS011;1386;50.862;6.494;2023-06-14T08:37:55;4.03;;;2.67;;
2756;SDS011;1386;50.862;6.494;2023-06-14T08:40:23;3.43;;;2.67;;
2756;SDS011;1386;50.862;6.494;2023-06-14T08:42:53;3.93;;;2.83;;
2756;SDS011;1386;50.862;6.494;2023-06-14T08:45:23;8.77;;;2.90;;
2756;SDS011;1386;50.862;6.494;2023-06-14T08:47:51;4.30;;;2.90;;
2756;SDS011;1386;50.862;6.494;2023-06-14T08:50:23;3.20;;;2.90;;
2756;SDS011;1386;50.862;6.494;2023-06-14T08:52:55;3.23;;;2.57;;
2756;SDS011;1386;50.862;6.494;2023-06-14T08:55:25;8.13;;;3.10;;
2756;SDS011;1386;50.862;6.494;2023-06-14T08:57:57;4.10;;;2.93;;
2756;SDS011;1386;50.862;6.494;2023-06-14T09:00:29;3.63;;;2.60;;
2756;SDS011;1386;50.862;6.494;2023-06-14T09:02:58;5.40;;;3.03;;
2756;SDS011;1386;50.862;6.494;2023-06-14T09:05:26;5.80;;;3.10;;
2756;SDS011;1386;50.862;6.494;2023-06-14T09:07:54;3.40;;;2.97;;
2756;SDS011;1386;50.862;6.494;2023-06-14T09:10:25;2.47;;;2.23;;
2756;SDS011;1386;50.862;6.494;2023-06-14T09:12:54;3.07;;;2.67;;
2756;SDS011;1386;50.862;6.494;2023-06-14T09:15:25;3.90;;;2.50;;
2756;SDS011;1386;50.862;6.494;2023-06-14T09:17:52;3.57;;;2.37;;
2756;SDS011;1386;50.862;6.494;2023-06-14T09:20:20;5.13;;;2.63;;
2756;SDS011;1386;50.862;6.494;2023-06-14T09:22:50;4.00;;;2.60;;
2756;SDS011;1386;50.862;6.494;2023-06-14T09:25:18;3.50;;;2.50;;
2756;SDS011;1386;50.862;6.494;2023-06-14T09:27:45;3.93;;;3.47;;
2756;SDS011;1386;50.862;6.494;2023-06-14T09:30:15;2.77;;;2.30;;
2756;SDS011;1386;50.862;6.494;2023-06-14T09:32:43;3.20;;;2.43;;
2756;SDS011;1386;50.862;6.494;2023-06-14T09:35:11;4.07;;;2.43;;
2756;SDS011;1386;50.862;6.494;2023-06-14T09:37:38;2.53;;;2.00;;
2756;SDS011;1386;50.862;6.494;2023-06-14T09:40:06;4.47;;;2.47;;
2756;SDS011;1386;50.862;6.494;2023-06-14T09:42:34;4.03;;;2.60;;
2756;SDS011;1386;50.862;6.494;2023-06-14T09:45:02;3.20;;;2.00;;
2756;SDS011;1386;50.862;6.494;2023-06-14T09:47:32;3.20;;;2.10;;
2756;SDS011;1386;50.862;6.494;2023-06-14T09:49:59;2.37;;;1.87;;
2756;SDS011;1386;50.862;6.494;2023-06-14T09:52:26;8.37;;;1.80;;
2756;SDS011;1386;50.862;6.494;2023-06-14T09:54:54;1.97;;;1.70;;
2756;SDS011;1386;50.862;6.494;2023-06-14T09:57:23;2.67;;;2.17;;
2756;SDS011;1386;50.862;6.494;2023-06-14T09:59:53;4.60;;;1.80;;
2756;SDS011;1386;50.862;6.494;2023-06-14T10:02:25;3.90;;;1.80;;
2756;SDS011;1386;50.862;6.494;2023-06-14T10:04:57;2.63;;;1.70;;
2756;SDS011;1386;50.862;6.494;2023-06-14T10:07:32;4.33;;;1.77;;
2756;SDS011;1386;50.862;6.494;2023-06-14T10:10:01;1.73;;;1.53;;
2756;SDS011;1386;50.862;6.494;2023-06-14T10:12:32;3.30;;;1.70;;
2756;SDS011;1386;50.862;6.494;2023-06-14T10:14:59;2.50;;;1.47;;
2756;SDS011;1386;50.862;6.494;2023-06-14T10:17:32;5.23;;;2.03;;
2756;SDS011;1386;50.862;6.494;2023-06-14T10:20:16;3.13;;;1.60;;
2756;SDS011;1386;50.862;6.494;2023-06-14T10:22:50;2.90;;;1.77;;
2756;SDS011;1386;50.862;6.494;2023-06-14T10:25:26;3.67;;;2.17;;
2756;SDS011;1386;50.862;6.494;2023-06-14T10:28:14;4.00;;;2.03;;
2756;SDS011;1386;50.862;6.494;2023-06-14T10:31:01;2.27;;;1.87;;
2756;SDS011;1386;50.862;6.494;2023-06-14T10:33:30;3.17;;;1.93;;
2756;SDS011;1386;50.862;6.494;2023-06-14T10:36:08;2.93;;;1.87;;
2756;SDS011;1386;50.862;6.494;2023-06-14T10:38:37;3.83;;;2.10;;
2756;SDS011;1386;50.862;6.494;2023-06-14T10:41:04;3.53;;;2.30;;
2756;SDS011;1386;50.862;6.494;2023-06-14T10:43:32;2.80;;;1.83;;
2756;SDS011;1386;50.862;6.494;2023-06-14T10:46:15;5.87;;;2.03;;
2756;SDS011;1386;50.862;6.494;2023-06-14T10:48:44;3.57;;;2.40;;
2756;SDS011;1386;50.862;6.494;2023-06-14T10:51:19;4.53;;;1.90;;
2756;SDS011;1386;50.862;6.494;2023-06-14T10:53:47;2.70;;;1.80;;
2756;SDS011;1386;50.862;6.494;2023-06-14T10:56:24;4.13;;;2.20;;
2756;SDS011;1386;50.862;6.494;2023-06-14T10:58:54;5.83;;;2.57;;
2756;SDS011;1386;50.862;6.494;2023-06-14T11:01:31;4.23;;;2.57;;
2756;SDS011;1386;50.862;6.494;2023-06-14T11:04:06;5.10;;;1.93;;
2756;SDS011;1386;50.862;6.494;2023-06-14T11:06:42;3.97;;;2.20;;
2756;SDS011;1386;50.862;6.494;2023-06-14T11:12:28;2.93;;;2.00;;
2756;SDS011;1386;50.862;6.494;2023-06-14T11:14:58;5.97;;;1.93;;
2756;SDS011;1386;50.862;6.494;2023-06-14T11:17:26;3.77;;;1.90;;
2756;SDS011;1386;50.862;6.494;2023-06-14T11:20:07;3.27;;;2.40;;
2756;SDS011;1386;50.862;6.494;2023-06-14T11:22:40;5.07;;;1.93;;
2756;SDS011;1386;50.862;6.494;2023-06-14T11:25:08;3.60;;;2.30;;
2756;SDS011;1386;50.862;6.494;2023-06-14T11:27:36;3.93;;;2.63;;
2756;SDS011;1386;50.862;6.494;2023-06-14T11:30:06;7.23;;;2.60;;
2756;SDS011;1386;50.862;6.494;2023-06-14T11:32:35;3.33;;;2.37;;
2756;SDS011;1386;50.862;6.494;2023-06-14T11:35:02;3.97;;;2.20;;
2756;SDS011;1386;50.862;6.494;2023-06-14T11:37:33;7.20;;;2.33;;
2756;SDS011;1386;50.862;6.494;2023-06-14T11:40:02;10.13;;;3.30;;
2756;SDS011;1386;50.862;6.494;2023-06-14T11:42:33;7.33;;;2.20;;
2756;SDS011;1386;50.862;6.494;2023-06-14T11:45:01;4.80;;;2.27;;
2756;SDS011;1386;50.862;6.494;2023-06-14T11:47:31;5.10;;;2.27;;
2756;SDS011;1386;50.862;6.494;2023-06-14T11:49:58;2.43;;;1.90;;
2756;SDS011;1386;50.862;6.494;2023-06-14T11:52:25;4.33;;;2.30;;
2756;SDS011;1386;50.862;6.494;2023-06-14T11:54:53;6.07;;;2.40;;
2756;SDS011;1386;50.862;6.494;2023-06-14T11:57:22;4.73;;;2.10;;
2756;SDS011;1386;50.862;6.494;2023-06-14T11:59:50;3.50;;;2.00;;
2756;SDS011;1386;50.862;6.494;2023-06-14T12:02:18;3.47;;;2.10;;
2756;SDS011;1386;50.862;6.494;2023-06-14T12:04:46;4.63;;;2.30;;
2756;SDS011;1386;50.862;6.494;2023-06-14T12:07:14;3.83;;;1.90;;
2756;SDS011;1386;50.862;6.494;2023-06-14T18:13:09;5.80;;;2.30;;
2756;SDS011;1386;50.862;6.494;2023-06-14T18:15:36;2.70;;;2.50;;
2756;SDS011;1386;50.862;6.494;2023-06-14T18:18:03;4.33;;;2.40;;
2756;SDS011;1386;50.862;6.494;2023-06-14T18:20:31;2.30;;;2.10;;
2756;SDS011;1386;50.862;6.494;2023-06-14T18:22:58;2.90;;;2.60;;
2756;SDS011;1386;50.862;6.494;2023-06-14T18:25:25;2.47;;;2.27;;
2756;SDS011;1386;50.862;6.494;2023-06-14T18:27:52;3.13;;;2.40;;
2756;SDS011;1386;50.862;6.494;2023-06-14T18:30:20;3.00;;;2.30;;
2756;SDS011;1386;50.862;6.494;2023-06-14T18:32:47;3.50;;;2.60;;
2756;SDS011;1386;50.862;6.494;2023-06-14T18:35:14;2.67;;;2.30;;
2756;SDS011;1386;50.862;6.494;2023-06-14T18:37:42;2.80;;;2.50;;
2756;SDS011;1386;50.862;6.494;2023-06-14T18:40:09;2.70;;;2.17;;
2756;SDS011;1386;50.862;6.494;2023-06-14T18:42:37;2.57;;;2.37;;
2756;SDS011;1386;50.862;6.494;2023-06-14T18:45:04;2.77;;;2.30;;
2756;SDS011;1386;50.862;6.494;2023-06-14T18:47:33;2.30;;;2.10;;
2756;SDS011;1386;50.862;6.494;2023-06-14T18:50:00;3.93;;;2.57;;
2756;SDS011;1386;50.862;6.494;2023-06-14T18:52:27;3.10;;;2.37;;
2756;SDS011;1386;50.862;6.494;2023-06-14T18:54:54;2.47;;;2.20;;
2756;SDS011;1386;50.862;6.494;2023-06-14T18:57:21;4.27;;;2.60;;
2756;SDS011;1386;50.862;6.494;2023-06-14T18:59:50;2.37;;;2.17;;
2756;SDS011;1386;50.862;6.494;2023-06-14T19:02:16;2.57;;;2.10;;
2756;SDS011;1386;50.862;6.494;2023-06-14T19:04:45;2.73;;;2.20;;
2756;SDS011;1386;50.862;6.494;2023-06-14T19:07:12;2.50;;;2.30;;
2756;SDS011;1386;50.862;6.494;2023-06-14T19:09:39;2.80;;;2.27;;
2756;SDS011;1386;50.862;6.494;2023-06-14T19:12:07;5.10;;;3.10;;
2756;SDS011;1386;50.862;6.494;2023-06-14T19:14:34;3.33;;;2.93;;
2756;SDS011;1386;50.862;6.494;2023-06-14T19:17:01;5.17;;;2.83;;
2756;SDS011;1386;50.862;6.494;2023-06-14T19:19:27;3.00;;;2.67;;
2756;SDS011;1386;50.862;6.494;2023-06-14T19:21:56;2.80;;;2.50;;
2756;SDS011;1386;50.862;6.494;2023-06-14T19:24:23;3.40;;;2.37;;
2756;SDS011;1386;50.862;6.494;2023-06-14T19:26:50;4.47;;;2.60;;
2756;SDS011;1386;50.862;6.494;2023-06-14T19:29:17;2.30;;;2.10;;
2756;SDS011;1386;50.862;6.494;2023-06-14T19:31:43;3.20;;;2.43;;
2756;SDS011;1386;50.862;6.494;2023-06-14T19:34:10;2.70;;;2.47;;
2756;SDS011;1386;50.862;6.494;2023-06-14T19:36:37;3.17;;;2.30;;
2756;SDS011;1386;50.862;6.494;2023-06-14T19:39:05;3.93;;;2.63;;
2756;SDS011;1386;50.862;6.494;2023-06-14T19:41:32;3.17;;;2.87;;
2756;SDS011;1386;50.862;6.494;2023-06-14T19:43:59;5.73;;;3.60;;
2756;SDS011;1386;50.862;6.494;2023-06-14T19:46:26;3.10;;;2.27;;
2756;SDS011;1386;50.862;6.494;2023-06-14T19:48:53;4.40;;;2.80;;
2756;SDS011;1386;50.862;6.494;2023-06-14T19:51:20;2.67;;;2.47;;
2756;SDS011;1386;50.862;6.494;2023-06-14T19:53:47;3.70;;;2.50;;
2756;SDS011;1386;50.862;6.494;2023-06-14T19:56:15;5.07;;;2.97;;
2756;SDS011;1386;50.862;6.494;2023-06-14T19:58:42;4.17;;;3.00;;
2756;SDS011;1386;50.862;6.494;2023-06-14T20:01:09;3.33;;;2.77;;
2756;SDS011;1386;50.862;6.494;2023-06-14T20:03:36;2.63;;;2.40;;
2756;SDS011;1386;50.862;6.494;2023-06-14T20:06:04;3.33;;;2.60;;
2756;SDS011;1386;50.862;6.494;2023-06-14T20:08:31;3.13;;;2.70;;
2756;SDS011;1386;50.862;6.494;2023-06-14T20:10:58;3.27;;;2.97;;
2756;SDS011;1386;50.862;6.494;2023-06-14T20:13:27;2.63;;;2.43;;
2756;SDS011;1386;50.862;6.494;2023-06-14T20:15:53;3.27;;;2.37;;
2756;SDS011;1386;50.862;6.494;2023-06-14T20:18:20;2.83;;;2.53;;
2756;SDS011;1386;50.862;6.494;2023-06-14T20:20:48;3.27;;;2.63;;
2756;SDS011;1386;50.862;6.494;2023-06-14T20:23:15;4.37;;;2.43;;
2756;SDS011;1386;50.862;6.494;2023-06-14T20:25:42;3.10;;;2.80;;
2756;SDS011;1386;50.862;6.494;2023-06-14T20:28:09;15.40;;;3.03;;
2756;SDS011;1386;50.862;6.494;2023-06-14T20:30:39;3.70;;;2.67;;
2756;SDS011;1386;50.862;6.494;2023-06-14T20:33:06;3.23;;;2.93;;
2756;SDS011;1386;50.862;6.494;2023-06-14T20:35:33;2.93;;;2.63;;
2756;SDS011;1386;50.862;6.494;2023-06-14T20:38:00;3.67;;;2.70;;
2756;SDS011;1386;50.862;6.494;2023-06-14T20:40:27;3.17;;;2.50;;
2756;SDS011;1386;50.862;6.494;2023-06-14T20:42:54;3.73;;;2.90;;
2756;SDS011;1386;50.862;6.494;2023-06-14T20:45:22;10.73;;;3.13;;
2756;SDS011;1386;50.862;6.494;2023-06-14T20:47:51;4.13;;;2.90;;
2756;SDS011;1386;50.862;6.494;2023-06-14T20:50:19;5.40;;;2.60;;
2756;SDS011;1386;50.862;6.494;2023-06-14T20:52:46;4.10;;;2.83;;
2756;SDS011;1386;50.862;6.494;2023-06-14T20:55:13;6.53;;;3.13;;
2756;SDS011;1386;50.862;6.494;2023-06-14T20:57:40;3.13;;;2.60;;
2756;SDS011;1386;50.862;6.494;2023-06-14T21:00:07;4.70;;;2.50;;
2756;SDS011;1386;50.862;6.494;2023-06-14T21:02:36;4.50;;;2.83;;
2756;SDS011;1386;50.862;6.494;2023-06-14T21:05:06;3.07;;;2.77;;
2756;SDS011;1386;50.862;6.494;2023-06-14T21:07:34;3.73;;;3.00;;
2756;SDS011;1386;50.862;6.494;2023-06-14T21:10:01;3.60;;;2.70;;
2756;SDS011;1386;50.862;6.494;2023-06-14T21:12:28;2.93;;;2.70;;
2756;SDS011;1386;50.862;6.494;2023-06-14T21:14:55;3.90;;;2.60;;
2756;SDS011;1386;50.862;6.494;2023-06-14T21:17:22;2.80;;;2.47;;
2756;SDS011;1386;50.862;6.494;2023-06-14T21:19:49;5.03;;;2.90;;
2756;SDS011;1386;50.862;6.494;2023-06-14T21:22:17;2.70;;;2.50;;
2756;SDS011;1386;50.862;6.494;2023-06-14T21:24:44;3.30;;;2.93;;
2756;SDS011;1386;50.862;6.494;2023-06-14T21:27:10;2.70;;;2.50;;
2756;SDS011;1386;50.862;6.494;2023-06-14T21:29:37;3.40;;;2.87;;
2756;SDS011;1386;50.862;6.494;2023-06-14T21:32:05;3.03;;;2.73;;
2756;SDS011;1386;50.862;6.494;2023-06-14T21:34:32;4.03;;;3.17;;
2756;SDS011;1386;50.862;6.494;2023-06-14T21:36:59;6.83;;;3.10;;
2756;SDS011;1386;50.862;6.494;2023-06-14T21:39:30;3.27;;;2.87;;
2756;SDS011;1386;50.862;6.494;2023-06-14T21:41:57;3.63;;;3.20;;
2756;SDS011;1386;50.862;6.494;2023-06-14T21:44:23;3.07;;;2.77;;
2756;SDS011;1386;50.862;6.494;2023-06-14T21:46:50;3.00;;;2.70;;
2756;SDS011;1386;50.862;6.494;2023-06-14T21:49:17;6.53;;;2.73;;
2756;SDS011;1386;50.862;6.494;2023-06-14T21:51:44;4.10;;;3.27;;
2756;SDS011;1386;50.862;6.494;2023-06-14T21:54:11;4.80;;;3.17;;
2756;SDS011;1386;50.862;6.494;2023-06-14T21:56:39;6.03;;;2.77;;
2756;SDS011;1386;50.862;6.494;2023-06-14T21:59:06;3.57;;;2.80;;
2756;SDS011;1386;50.862;6.494;2023-06-14T22:01:33;3.30;;;3.00;;
2756;SDS011;1386;50.862;6.494;2023-06-14T22:03:59;3.37;;;3.07;;
2756;SDS011;1386;50.862;6.494;2023-06-14T22:06:26;3.97;;;3.00;;
2756;SDS011;1386;50.862;6.494;2023-06-14T22:08:57;3.27;;;2.90;;
2756;SDS011;1386;50.862;6.494;2023-06-14T22:11:24;3.33;;;3.00;;
2756;SDS011;1386;50.862;6.494;2023-06-14T22:14:00;3.77;;;3.40;;
2756;SDS011;1386;50.862;6.494;2023-06-14T22:16:27;3.40;;;3.00;;
2756;SDS011;1386;50.862;6.494;2023-06-14T22:18:54;3.53;;;3.23;;
2756;SDS011;1386;50.862;6.494;2023-06-14T22:21:22;4.20;;;3.47;;
2756;SDS011;1386;50.862;6.494;2023-06-14T22:23:49;6.00;;;3.60;;
2756;SDS011;1386;50.862;6.494;2023-06-14T22:26:16;4.70;;;3.60;;
2756;SDS011;1386;50.862;6.494;2023-06-14T22:28:43;3.80;;;3.00;;
2756;SDS011;1386;50.862;6.494;2023-06-14T22:31:11;3.37;;;3.07;;
2756;SDS011;1386;50.862;6.494;2023-06-14T22:33:39;3.87;;;3.57;;
2756;SDS011;1386;50.862;6.494;2023-06-14T22:36:07;3.27;;;2.97;;
2756;SDS011;1386;50.862;6.494;2023-06-14T22:38:36;3.57;;;3.23;;
2756;SDS011;1386;50.862;6.494;2023-06-14T22:41:04;3.40;;;3.10;;
2756;SDS011;1386;50.862;6.494;2023-06-14T22:43:34;3.70;;;3.40;;
2756;SDS011;1386;50.862;6.494;2023-06-14T22:46:02;4.90;;;3.47;;
2756;SDS011;1386;50.862;6.494;2023-06-14T22:48:33;4.27;;;3.10;;
2756;SDS011;1386;50.862;6.494;2023-06-14T22:51:10;3.50;;;3.00;;
2756;SDS011;1386;50.862;6.494;2023-06-14T22:53:38;5.37;;;3.30;;
2756;SDS011;1386;50.862;6.494;2023-06-14T22:56:05;4.00;;;3.57;;
2756;SDS011;1386;50.862;6.494;2023-06-14T22:58:32;4.57;;;3.00;;
2756;SDS011;1386;50.862;6.494;2023-06-14T23:01:00;3.93;;;3.50;;
2756;SDS011;1386;50.862;6.494;2023-06-14T23:03:28;4.50;;;3.37;;
2756;SDS011;1386;50.862;6.494;2023-06-14T23:05:57;4.27;;;3.33;;
2756;SDS011;1386;50.862;6.494;2023-06-14T23:08:27;3.33;;;3.00;;
2756;SDS011;1386;50.862;6.494;2023-06-14T23:10:55;4.87;;;3.20;;
2756;SDS011;1386;50.862;6.494;2023-06-14T23:16:44;3.50;;;3.13;;
2756;SDS011;1386;50.862;6.494;2023-06-14T23:19:12;3.83;;;3.30;;
2756;SDS011;1386;50.862;6.494;2023-06-14T23:21:42;4.00;;;3.40;;
2756;SDS011;1386;50.862;6.494;2023-06-14T23:24:11;4.20;;;3.40;;
2756;SDS011;1386;50.862;6.494;2023-06-14T23:26:39;8.30;;;3.40;;
2756;SDS011;1386;50.862;6.494;2023-06-14T23:29:06;6.37;;;3.10;;
2756;SDS011;1386;50.862;6.494;2023-06-14T23:31:33;3.50;;;3.20;;
2756;SDS011;1386;50.862;6.494;2023-06-14T23:34:00;4.53;;;3.33;;
2756;SDS011;1386;50.862;6.494;2023-06-14T23:36:27;3.90;;;3.10;;
2756;SDS011;1386;50.862;6.494;2023-06-14T23:38:58;3.93;;;3.23;;
2756;SDS011;1386;50.862;6.494;2023-06-14T23:41:28;3.37;;;3.07;;
2756;SDS011;1386;50.862;6.494;2023-06-14T23:43:56;6.17;;;3.20;;
2756;SDS011;1386;50.862;6.494;2023-06-14T23:46:25;3.57;;;2.77;;
2756;SDS011;1386;50.862;6.494;2023-06-14T23:48:53;3.90;;;2.83;;
2756;SDS011;1386;50.862;6.494;2023-06-14T23:51:21;5.73;;;3.33;;
2756;SDS011;1386;50.862;6.494;2023-06-14T23:53:48;5.37;;;3.40;;
2756;SDS011;1386;50.862;6.494;2023-06-14T23:56:18;3.87;;;3.40;;
2756;SDS011;1386;50.862;6.494;2023-06-14T23:58:49;3.10;;;2.80;;
